JBU687 KORH-KMCO
Flight info
| Callsign | JBU687 |
|---|---|
| Flight time | 2h 43m |
| Altitude | 36000 |
| Route | ORW CCC Q97 SAWED MOXXY Q85 LPERD SNFLD3 |
| Aircraft | A320/M-SDE3FGHIRWY/LB1 |
Departure
| Time | 2026-05-03 20:59 |
|---|---|
| Airport | Worcester Regional Airport (KORH) |
Arrival
| Time | 2026-05-03 23:43 |
|---|---|
| Airport | Orlando International Airport (KMCO) |
| Time | Latitude | Longitude | Altitude | Speed | Heading |
|---|---|---|---|---|---|
| 2026-05-03 20:36 | 42.26926 | -71.87124 | 1005 ft | 0 kts | 56° |
| 2026-05-03 20:53 | 42.26926 | -71.87125 | 1004 ft | 1 kts | 56° |
| 2026-05-03 20:53 | 42.26918 | -71.87141 | 1004 ft | 3 kts | 60° |
| 2026-05-03 20:53 | 42.26909 | -71.87165 | 1004 ft | 3 kts | 70° |
| 2026-05-03 20:53 | 42.26903 | -71.87191 | 1004 ft | 3 kts | 86° |
| 2026-05-03 20:54 | 42.26905 | -71.87216 | 1004 ft | 3 kts | 120° |
| 2026-05-03 20:54 | 42.26909 | -71.87225 | 1004 ft | 0 kts | 137° |
| 2026-05-03 20:57 | 42.26902 | -71.87216 | 1004 ft | 7 kts | 137° |
| 2026-05-03 20:57 | 42.26848 | -71.87151 | 1004 ft | 12 kts | 138° |
| 2026-05-03 20:57 | 42.26777 | -71.87063 | 1004 ft | 17 kts | 135° |
| 2026-05-03 20:57 | 42.26702 | -71.86935 | 1000 ft | 16 kts | 135° |
| 2026-05-03 20:58 | 42.26618 | -71.86833 | 1001 ft | 17 kts | 139° |
| 2026-05-03 20:58 | 42.26527 | -71.86723 | 1000 ft | 16 kts | 138° |
| 2026-05-03 20:58 | 42.26506 | -71.86631 | 1002 ft | 12 kts | 66° |
| 2026-05-03 20:58 | 42.26571 | -71.86541 | 999 ft | 15 kts | 11° |
| 2026-05-03 20:59 | 42.26611 | -71.86635 | 1001 ft | 14 kts | 275° |
| 2026-05-03 20:59 | 42.26633 | -71.87044 | 1000 ft | 84 kts | 274° |
| 2026-05-03 20:59 | 42.26685 | -71.88167 | 1022 ft | 149 kts | 273° |
| 2026-05-03 20:59 | 42.26751 | -71.89568 | 1881 ft | 151 kts | 277° |
| 2026-05-03 21:00 | 42.26822 | -71.90984 | 2821 ft | 153 kts | 278° |
| 2026-05-03 21:00 | 42.26847 | -71.91478 | 2954 ft | 160 kts | 278° |
| 2026-05-03 21:00 | 42.26994 | -71.94295 | 3329 ft | 202 kts | 273° |
| 2026-05-03 21:00 | 42.26576 | -71.96230 | 3704 ft | 237 kts | 239° |
| 2026-05-03 21:01 | 42.25166 | -71.97588 | 4355 ft | 267 kts | 203° |
| 2026-05-03 21:01 | 42.23302 | -71.98056 | 5243 ft | 277 kts | 189° |
| 2026-05-03 21:01 | 42.21351 | -71.98136 | 6135 ft | 283 kts | 184° |
| 2026-05-03 21:01 | 42.19367 | -71.98076 | 6976 ft | 287 kts | 182° |
| 2026-05-03 21:02 | 42.17354 | -71.98000 | 7795 ft | 291 kts | 183° |
| 2026-05-03 21:02 | 42.15317 | -71.97959 | 8643 ft | 294 kts | 184° |
| 2026-05-03 21:02 | 42.13256 | -71.97963 | 9466 ft | 298 kts | 185° |
| 2026-05-03 21:02 | 42.11165 | -71.98001 | 10217 ft | 302 kts | 185° |
| 2026-05-03 21:03 | 42.08996 | -71.98068 | 10537 ft | 323 kts | 186° |
| 2026-05-03 21:03 | 42.06671 | -71.98158 | 10719 ft | 346 kts | 186° |
| 2026-05-03 21:03 | 42.04249 | -71.98254 | 11133 ft | 358 kts | 185° |
| 2026-05-03 21:03 | 42.01710 | -71.98343 | 11784 ft | 363 kts | 185° |
| 2026-05-03 21:04 | 41.99205 | -71.98428 | 12438 ft | 367 kts | 185° |
| 2026-05-03 21:04 | 41.96602 | -71.98518 | 13099 ft | 372 kts | 185° |
| 2026-05-03 21:04 | 41.94036 | -71.98609 | 13727 ft | 376 kts | 185° |
| 2026-05-03 21:04 | 41.91404 | -71.98701 | 14316 ft | 380 kts | 186° |
| 2026-05-03 21:05 | 41.88751 | -71.98789 | 14906 ft | 383 kts | 186° |
| 2026-05-03 21:05 | 41.86073 | -71.98880 | 15490 ft | 386 kts | 186° |
| 2026-05-03 21:05 | 41.83379 | -71.98975 | 16064 ft | 389 kts | 186° |
| 2026-05-03 21:05 | 41.80660 | -71.99070 | 16618 ft | 392 kts | 186° |
| 2026-05-03 21:06 | 41.77922 | -71.99167 | 17196 ft | 395 kts | 186° |
| 2026-05-03 21:06 | 41.75159 | -71.99267 | 17779 ft | 398 kts | 186° |
| 2026-05-03 21:06 | 41.72374 | -71.99367 | 18344 ft | 402 kts | 186° |
| 2026-05-03 21:06 | 41.69572 | -71.99464 | 18871 ft | 404 kts | 186° |
| 2026-05-03 21:07 | 41.66753 | -71.99556 | 19392 ft | 407 kts | 186° |
| 2026-05-03 21:07 | 41.63911 | -71.99648 | 19914 ft | 409 kts | 186° |
| 2026-05-03 21:07 | 41.61061 | -71.99764 | 20443 ft | 410 kts | 189° |
| 2026-05-03 21:07 | 41.58258 | -72.00346 | 20940 ft | 406 kts | 200° |
| 2026-05-03 21:08 | 41.55613 | -72.01588 | 21426 ft | 401 kts | 211° |
| 2026-05-03 21:08 | 41.53213 | -72.03426 | 21894 ft | 396 kts | 221° |
| 2026-05-03 21:08 | 41.51114 | -72.05774 | 22366 ft | 392 kts | 230° |
| 2026-05-03 21:08 | 41.49158 | -72.08323 | 22851 ft | 394 kts | 230° |
| 2026-05-03 21:09 | 41.47183 | -72.10880 | 23303 ft | 397 kts | 229° |
| 2026-05-03 21:09 | 41.45191 | -72.13446 | 23718 ft | 399 kts | 229° |
| 2026-05-03 21:09 | 41.43187 | -72.16014 | 24105 ft | 401 kts | 229° |
| 2026-05-03 21:09 | 41.41170 | -72.18598 | 24503 ft | 403 kts | 229° |
| 2026-05-03 21:10 | 41.39170 | -72.21161 | 24868 ft | 405 kts | 229° |
| 2026-05-03 21:10 | 41.37136 | -72.23771 | 25244 ft | 407 kts | 229° |
| 2026-05-03 21:10 | 41.35095 | -72.26388 | 25619 ft | 409 kts | 229° |
| 2026-05-03 21:10 | 41.33041 | -72.29020 | 26002 ft | 411 kts | 229° |
| 2026-05-03 21:11 | 41.30980 | -72.31657 | 26373 ft | 412 kts | 229° |
| 2026-05-03 21:11 | 41.28906 | -72.34305 | 26749 ft | 414 kts | 229° |
| 2026-05-03 21:11 | 41.26820 | -72.36965 | 27123 ft | 416 kts | 229° |
| 2026-05-03 21:11 | 41.24727 | -72.39636 | 27497 ft | 418 kts | 229° |
| 2026-05-03 21:12 | 41.22623 | -72.42319 | 27867 ft | 420 kts | 229° |
| 2026-05-03 21:12 | 41.21197 | -72.44136 | 28119 ft | 421 kts | 228° |
| 2026-05-03 21:12 | 41.19106 | -72.46800 | 28457 ft | 423 kts | 228° |
| 2026-05-03 21:12 | 41.16986 | -72.49499 | 28815 ft | 425 kts | 228° |
| 2026-05-03 21:13 | 41.14855 | -72.52210 | 29318 ft | 423 kts | 228° |
| 2026-05-03 21:13 | 41.12738 | -72.54902 | 29855 ft | 421 kts | 228° |
| 2026-05-03 21:13 | 41.10622 | -72.57586 | 30314 ft | 420 kts | 228° |
| 2026-05-03 21:13 | 41.08511 | -72.60257 | 30721 ft | 419 kts | 228° |
| 2026-05-03 21:14 | 41.06410 | -72.62909 | 31149 ft | 418 kts | 228° |
| 2026-05-03 21:14 | 41.04309 | -72.65564 | 31559 ft | 417 kts | 228° |
| 2026-05-03 21:14 | 41.02211 | -72.68214 | 31973 ft | 416 kts | 228° |
| 2026-05-03 21:14 | 41.00119 | -72.70854 | 32383 ft | 415 kts | 228° |
| 2026-05-03 21:15 | 40.98032 | -72.73489 | 32796 ft | 414 kts | 228° |
| 2026-05-03 21:15 | 40.95950 | -72.76117 | 33217 ft | 414 kts | 228° |
| 2026-05-03 21:15 | 40.93867 | -72.78744 | 33649 ft | 413 kts | 228° |
| 2026-05-03 21:15 | 40.91652 | -72.81182 | 34037 ft | 416 kts | 221° |
| 2026-05-03 21:16 | 40.89329 | -72.83448 | 34375 ft | 415 kts | 221° |
| 2026-05-03 21:16 | 40.87009 | -72.85711 | 34703 ft | 414 kts | 221° |
| 2026-05-03 21:16 | 40.84687 | -72.87972 | 35025 ft | 413 kts | 221° |
| 2026-05-03 21:16 | 40.82374 | -72.90218 | 35336 ft | 413 kts | 221° |
| 2026-05-03 21:17 | 40.80064 | -72.92459 | 35638 ft | 412 kts | 221° |
| 2026-05-03 21:17 | 40.77758 | -72.94697 | 35860 ft | 412 kts | 221° |
| 2026-05-03 21:17 | 40.73108 | -72.99223 | 35905 ft | 419 kts | 221° |
| 2026-05-03 21:18 | 40.68430 | -73.03755 | 35907 ft | 420 kts | 221° |
| 2026-05-03 21:18 | 40.63715 | -73.08315 | 35911 ft | 420 kts | 221° |
| 2026-05-03 21:19 | 40.59011 | -73.12864 | 35917 ft | 419 kts | 221° |
| 2026-05-03 21:19 | 40.54305 | -73.17392 | 35926 ft | 419 kts | 221° |
| 2026-05-03 21:20 | 40.49597 | -73.21929 | 35933 ft | 419 kts | 221° |
| 2026-05-03 21:20 | 40.45064 | -73.26282 | 35938 ft | 419 kts | 221° |
| 2026-05-03 21:21 | 40.40390 | -73.30766 | 35946 ft | 419 kts | 221° |
| 2026-05-03 21:21 | 40.35690 | -73.35274 | 35951 ft | 418 kts | 221° |
| 2026-05-03 21:22 | 40.30983 | -73.39762 | 35950 ft | 418 kts | 221° |
| 2026-05-03 21:22 | 40.26283 | -73.44245 | 35955 ft | 418 kts | 222° |
| 2026-05-03 21:23 | 40.21584 | -73.48716 | 35956 ft | 418 kts | 221° |
| 2026-05-03 21:23 | 40.16870 | -73.53165 | 35958 ft | 417 kts | 221° |
| 2026-05-03 21:24 | 40.12161 | -73.57606 | 35964 ft | 417 kts | 222° |
| 2026-05-03 21:24 | 40.07462 | -73.62047 | 35966 ft | 417 kts | 222° |
| 2026-05-03 21:25 | 40.02763 | -73.66476 | 35972 ft | 416 kts | 222° |
| 2026-05-03 21:25 | 39.98056 | -73.70889 | 35976 ft | 417 kts | 221° |
| 2026-05-03 21:26 | 39.92829 | -73.74372 | 35976 ft | 427 kts | 209° |
| 2026-05-03 21:26 | 39.87313 | -73.77299 | 35978 ft | 427 kts | 209° |
| 2026-05-03 21:27 | 39.81811 | -73.80236 | 35981 ft | 427 kts | 210° |
| 2026-05-03 21:27 | 39.76314 | -73.83171 | 35982 ft | 427 kts | 210° |
| 2026-05-03 21:28 | 39.70815 | -73.86096 | 35983 ft | 427 kts | 210° |
| 2026-05-03 21:28 | 39.65314 | -73.89007 | 35992 ft | 427 kts | 210° |
| 2026-05-03 21:29 | 39.59813 | -73.91918 | 35994 ft | 427 kts | 210° |
| 2026-05-03 21:29 | 39.54346 | -73.94800 | 35997 ft | 427 kts | 210° |
| 2026-05-03 21:30 | 39.48851 | -73.97698 | 36005 ft | 426 kts | 210° |
| 2026-05-03 21:30 | 39.43364 | -74.00604 | 36004 ft | 424 kts | 212° |
| 2026-05-03 21:31 | 39.38533 | -74.04651 | 36001 ft | 408 kts | 227° |
| 2026-05-03 21:31 | 39.34210 | -74.09408 | 36011 ft | 408 kts | 227° |
| 2026-05-03 21:32 | 39.29867 | -74.14143 | 36005 ft | 408 kts | 226° |
| 2026-05-03 21:32 | 39.25519 | -74.18862 | 36009 ft | 408 kts | 227° |
| 2026-05-03 21:33 | 39.21172 | -74.23585 | 36009 ft | 408 kts | 227° |
| 2026-05-03 21:33 | 39.16833 | -74.28303 | 36013 ft | 408 kts | 227° |
| 2026-05-03 21:34 | 39.12494 | -74.33016 | 36015 ft | 408 kts | 227° |
| 2026-05-03 21:34 | 39.08156 | -74.37712 | 36020 ft | 408 kts | 227° |
| 2026-05-03 21:35 | 39.03809 | -74.42399 | 36033 ft | 407 kts | 227° |
| 2026-05-03 21:35 | 38.99471 | -74.47078 | 36030 ft | 407 kts | 227° |
| 2026-05-03 21:36 | 38.95133 | -74.51744 | 36035 ft | 406 kts | 227° |
| 2026-05-03 21:36 | 38.90866 | -74.56485 | 36041 ft | 404 kts | 229° |
| 2026-05-03 21:37 | 38.86744 | -74.61377 | 36036 ft | 403 kts | 230° |
| 2026-05-03 21:37 | 38.82634 | -74.66275 | 36036 ft | 403 kts | 229° |
| 2026-05-03 21:38 | 38.78505 | -74.71126 | 36035 ft | 403 kts | 229° |
| 2026-05-03 21:38 | 38.74343 | -74.75944 | 36042 ft | 403 kts | 228° |
| 2026-05-03 21:39 | 38.70024 | -74.80545 | 36047 ft | 405 kts | 226° |
| 2026-05-03 21:39 | 38.65612 | -74.85024 | 36058 ft | 404 kts | 226° |
| 2026-05-03 21:40 | 38.61229 | -74.89511 | 36061 ft | 403 kts | 226° |
| 2026-05-03 21:40 | 38.56879 | -74.94019 | 36059 ft | 402 kts | 226° |
| 2026-05-03 21:41 | 38.52542 | -74.98532 | 36061 ft | 401 kts | 227° |
| 2026-05-03 21:41 | 38.48315 | -75.03158 | 36058 ft | 399 kts | 229° |
| 2026-05-03 21:42 | 38.44077 | -75.07752 | 36053 ft | 401 kts | 226° |
| 2026-05-03 21:42 | 38.39590 | -75.12026 | 36052 ft | 403 kts | 224° |
| 2026-05-03 21:43 | 38.35052 | -75.16198 | 36053 ft | 401 kts | 224° |
| 2026-05-03 21:43 | 38.30562 | -75.20398 | 36054 ft | 399 kts | 225° |
| 2026-05-03 21:44 | 38.26114 | -75.24615 | 36054 ft | 398 kts | 225° |
| 2026-05-03 21:44 | 38.21679 | -75.28819 | 36059 ft | 397 kts | 225° |
| 2026-05-03 21:45 | 38.17245 | -75.33011 | 36066 ft | 397 kts | 225° |
| 2026-05-03 21:45 | 38.12822 | -75.37185 | 36085 ft | 396 kts | 225° |
| 2026-05-03 21:46 | 38.08398 | -75.41348 | 36075 ft | 395 kts | 225° |
| 2026-05-03 21:46 | 38.03993 | -75.45449 | 36082 ft | 395 kts | 224° |
| 2026-05-03 21:47 | 37.99477 | -75.49435 | 36076 ft | 396 kts | 223° |
| 2026-05-03 21:47 | 37.94918 | -75.53354 | 36070 ft | 395 kts | 223° |
| 2026-05-03 21:48 | 37.90382 | -75.57267 | 36060 ft | 394 kts | 223° |
| 2026-05-03 21:48 | 37.85855 | -75.61192 | 36056 ft | 394 kts | 224° |
| 2026-05-03 21:49 | 37.81238 | -75.65037 | 36030 ft | 401 kts | 221° |
| 2026-05-03 21:49 | 37.76405 | -75.68640 | 36036 ft | 405 kts | 219° |
| 2026-05-03 21:50 | 37.71523 | -75.72206 | 36041 ft | 406 kts | 220° |
| 2026-05-03 21:50 | 37.66655 | -75.75828 | 36050 ft | 406 kts | 220° |
| 2026-05-03 21:51 | 37.61802 | -75.79476 | 36054 ft | 406 kts | 220° |
| 2026-05-03 21:51 | 37.56950 | -75.83119 | 36061 ft | 406 kts | 220° |
| 2026-05-03 21:52 | 37.52232 | -75.86930 | 36067 ft | 396 kts | 227° |
| 2026-05-03 21:52 | 37.48018 | -75.91205 | 36082 ft | 395 kts | 227° |
| 2026-05-03 21:53 | 37.43732 | -75.95534 | 36082 ft | 395 kts | 227° |
| 2026-05-03 21:53 | 37.40162 | -75.99128 | 36076 ft | 395 kts | 227° |
| 2026-05-03 21:54 | 37.35878 | -76.03437 | 36078 ft | 394 kts | 227° |
| 2026-05-03 21:54 | 37.31598 | -76.07745 | 36073 ft | 394 kts | 227° |
| 2026-05-03 21:55 | 37.27324 | -76.12037 | 36073 ft | 394 kts | 227° |
| 2026-05-03 21:55 | 37.23037 | -76.16323 | 36068 ft | 393 kts | 227° |
| 2026-05-03 21:56 | 37.18759 | -76.20604 | 36065 ft | 393 kts | 227° |
| 2026-05-03 21:56 | 37.14483 | -76.24878 | 36058 ft | 393 kts | 227° |
| 2026-05-03 21:57 | 37.10203 | -76.29146 | 36059 ft | 393 kts | 227° |
| 2026-05-03 21:57 | 37.05928 | -76.33406 | 36066 ft | 393 kts | 227° |
| 2026-05-03 21:58 | 37.01649 | -76.37665 | 36062 ft | 393 kts | 227° |
| 2026-05-03 21:58 | 36.97395 | -76.41891 | 36081 ft | 393 kts | 227° |
| 2026-05-03 21:59 | 36.93108 | -76.46140 | 36083 ft | 393 kts | 227° |
| 2026-05-03 21:59 | 36.88824 | -76.50385 | 36081 ft | 393 kts | 227° |
| 2026-05-03 22:00 | 36.84542 | -76.54620 | 36074 ft | 392 kts | 227° |
| 2026-05-03 22:00 | 36.80261 | -76.58853 | 36081 ft | 392 kts | 227° |
| 2026-05-03 22:01 | 36.75975 | -76.63080 | 36085 ft | 393 kts | 227° |
| 2026-05-03 22:01 | 36.71686 | -76.67301 | 36085 ft | 393 kts | 227° |
| 2026-05-03 22:02 | 36.67390 | -76.71517 | 36083 ft | 393 kts | 227° |
| 2026-05-03 22:02 | 36.63102 | -76.75727 | 36085 ft | 393 kts | 227° |
| 2026-05-03 22:03 | 36.58816 | -76.79945 | 36082 ft | 393 kts | 227° |
| 2026-05-03 22:03 | 36.54528 | -76.84146 | 36080 ft | 393 kts | 226° |
| 2026-05-03 22:04 | 36.50234 | -76.88334 | 36104 ft | 392 kts | 226° |
| 2026-05-03 22:04 | 36.45974 | -76.92481 | 36093 ft | 391 kts | 226° |
| 2026-05-03 22:05 | 36.41818 | -76.96532 | 36090 ft | 391 kts | 226° |
| 2026-05-03 22:05 | 36.37497 | -77.00745 | 36090 ft | 391 kts | 226° |
| 2026-05-03 22:06 | 36.33364 | -77.04764 | 36084 ft | 390 kts | 226° |
| 2026-05-03 22:06 | 36.29068 | -77.08929 | 36081 ft | 390 kts | 226° |
| 2026-05-03 22:07 | 36.24962 | -77.12877 | 36088 ft | 390 kts | 226° |
| 2026-05-03 22:07 | 36.20630 | -77.17083 | 36087 ft | 389 kts | 226° |
| 2026-05-03 22:08 | 36.16377 | -77.21219 | 36086 ft | 389 kts | 226° |
| 2026-05-03 22:08 | 36.12134 | -77.25321 | 36087 ft | 388 kts | 226° |
| 2026-05-03 22:09 | 36.07969 | -77.29327 | 36096 ft | 388 kts | 225° |
| 2026-05-03 22:10 | 36.01567 | -77.35480 | 36084 ft | 387 kts | 225° |
| 2026-05-03 22:10 | 35.97361 | -77.39564 | 36088 ft | 387 kts | 225° |
| 2026-05-03 22:11 | 35.93129 | -77.43665 | 36084 ft | 387 kts | 225° |
| 2026-05-03 22:11 | 35.89026 | -77.47630 | 36091 ft | 386 kts | 225° |
| 2026-05-03 22:12 | 35.84804 | -77.51695 | 36092 ft | 386 kts | 225° |
| 2026-05-03 22:12 | 35.80689 | -77.55651 | 36097 ft | 385 kts | 225° |
| 2026-05-03 22:13 | 35.76496 | -77.59688 | 36097 ft | 385 kts | 225° |
| 2026-05-03 22:13 | 35.72521 | -77.63511 | 36105 ft | 384 kts | 225° |
| 2026-05-03 22:14 | 35.68297 | -77.67559 | 36097 ft | 384 kts | 225° |
| 2026-05-03 22:14 | 35.64097 | -77.71578 | 36104 ft | 383 kts | 225° |
| 2026-05-03 22:15 | 35.60942 | -77.74567 | 36096 ft | 386 kts | 216° |
| 2026-05-03 22:15 | 35.58782 | -77.75382 | 35890 ft | 414 kts | 193° |
| 2026-05-03 22:15 | 35.55896 | -77.75189 | 35458 ft | 436 kts | 183° |
| 2026-05-03 22:15 | 35.52873 | -77.74333 | 35066 ft | 455 kts | 173° |
| 2026-05-03 22:16 | 35.49919 | -77.72846 | 34714 ft | 472 kts | 164° |
| 2026-05-03 22:16 | 35.47031 | -77.70742 | 34452 ft | 476 kts | 163° |
| 2026-05-03 22:16 | 35.44049 | -77.69484 | 34568 ft | 442 kts | 184° |
| 2026-05-03 22:16 | 35.41145 | -77.69582 | 34573 ft | 411 kts | 204° |
| 2026-05-03 22:17 | 35.38660 | -77.70933 | 34569 ft | 385 kts | 225° |
| 2026-05-03 22:17 | 35.36905 | -77.73303 | 34685 ft | 373 kts | 241° |
| 2026-05-03 22:17 | 35.35919 | -77.75199 | 34920 ft | 373 kts | 241° |
| 2026-05-03 22:17 | 35.34569 | -77.77638 | 35256 ft | 373 kts | 239° |
| 2026-05-03 22:18 | 35.33085 | -77.80252 | 35659 ft | 371 kts | 239° |
| 2026-05-03 22:18 | 35.31597 | -77.82871 | 36017 ft | 370 kts | 239° |
| 2026-05-03 22:18 | 35.30131 | -77.85451 | 36098 ft | 369 kts | 239° |
| 2026-05-03 22:19 | 35.27210 | -77.90588 | 36109 ft | 367 kts | 239° |
| 2026-05-03 22:19 | 35.24284 | -77.95728 | 36109 ft | 367 kts | 239° |
| 2026-05-03 22:20 | 35.21573 | -78.00333 | 36103 ft | 367 kts | 237° |
| 2026-05-03 22:20 | 35.18472 | -78.05394 | 36110 ft | 367 kts | 237° |
| 2026-05-03 22:21 | 35.15519 | -78.10210 | 36091 ft | 367 kts | 237° |
| 2026-05-03 22:21 | 35.12748 | -78.14573 | 36440 ft | 356 kts | 237° |
| 2026-05-03 22:21 | 35.11224 | -78.17035 | 36078 ft | 364 kts | 237° |
| 2026-05-03 22:22 | 35.09719 | -78.19464 | 36079 ft | 362 kts | 237° |
| 2026-05-03 22:22 | 35.06661 | -78.24406 | 36099 ft | 366 kts | 237° |
| 2026-05-03 22:23 | 35.03691 | -78.28900 | 36100 ft | 371 kts | 229° |
| 2026-05-03 22:23 | 34.99711 | -78.32933 | 36097 ft | 376 kts | 224° |
| 2026-05-03 22:24 | 34.95468 | -78.36687 | 36093 ft | 377 kts | 223° |
| 2026-05-03 22:24 | 34.91247 | -78.40464 | 36096 ft | 376 kts | 224° |
| 2026-05-03 22:25 | 34.87091 | -78.44321 | 36090 ft | 375 kts | 224° |
| 2026-05-03 22:25 | 34.82960 | -78.48203 | 36094 ft | 375 kts | 224° |
| 2026-05-03 22:26 | 34.78826 | -78.52072 | 36094 ft | 375 kts | 224° |
| 2026-05-03 22:26 | 34.74687 | -78.55926 | 36101 ft | 374 kts | 224° |
| 2026-05-03 22:27 | 34.70550 | -78.59769 | 36102 ft | 374 kts | 224° |
| 2026-05-03 22:27 | 34.66416 | -78.63614 | 36105 ft | 374 kts | 224° |
| 2026-05-03 22:28 | 34.62285 | -78.67448 | 36102 ft | 374 kts | 224° |
| 2026-05-03 22:28 | 34.58155 | -78.71273 | 36106 ft | 373 kts | 224° |
| 2026-05-03 22:29 | 34.54019 | -78.75089 | 36101 ft | 373 kts | 224° |
| 2026-05-03 22:29 | 34.49891 | -78.78893 | 36103 ft | 373 kts | 224° |
| 2026-05-03 22:30 | 34.45763 | -78.82691 | 36118 ft | 372 kts | 224° |
| 2026-05-03 22:30 | 34.41599 | -78.86432 | 36122 ft | 373 kts | 222° |
| 2026-05-03 22:31 | 34.37328 | -78.90019 | 36117 ft | 374 kts | 221° |
| 2026-05-03 22:31 | 34.33040 | -78.93573 | 36117 ft | 373 kts | 221° |
| 2026-05-03 22:32 | 34.28771 | -78.97141 | 36110 ft | 373 kts | 221° |
| 2026-05-03 22:32 | 34.24515 | -79.00727 | 36112 ft | 372 kts | 221° |
| 2026-05-03 22:33 | 34.20266 | -79.04308 | 36107 ft | 372 kts | 221° |
| 2026-05-03 22:33 | 34.16019 | -79.07875 | 36112 ft | 371 kts | 221° |
| 2026-05-03 22:34 | 34.11777 | -79.11429 | 36112 ft | 371 kts | 221° |
| 2026-05-03 22:34 | 34.07538 | -79.14978 | 36113 ft | 370 kts | 221° |
| 2026-05-03 22:35 | 34.03305 | -79.18518 | 36115 ft | 370 kts | 221° |
| 2026-05-03 22:35 | 33.99076 | -79.22050 | 36118 ft | 370 kts | 221° |
| 2026-05-03 22:36 | 33.94848 | -79.25579 | 36118 ft | 370 kts | 221° |
| 2026-05-03 22:36 | 33.90625 | -79.29109 | 36118 ft | 369 kts | 221° |
| 2026-05-03 22:37 | 33.86398 | -79.32631 | 36117 ft | 369 kts | 221° |
| 2026-05-03 22:37 | 33.82167 | -79.36132 | 36115 ft | 369 kts | 221° |
| 2026-05-03 22:38 | 33.77940 | -79.39637 | 36113 ft | 369 kts | 221° |
| 2026-05-03 22:38 | 33.74431 | -79.42551 | 36113 ft | 369 kts | 221° |
| 2026-05-03 22:39 | 33.69522 | -79.46629 | 36113 ft | 369 kts | 221° |
| 2026-05-03 22:39 | 33.65984 | -79.49559 | 36109 ft | 369 kts | 221° |
| 2026-05-03 22:40 | 33.61761 | -79.53048 | 36113 ft | 369 kts | 221° |
| 2026-05-03 22:40 | 33.57537 | -79.56538 | 36111 ft | 369 kts | 221° |
| 2026-05-03 22:41 | 33.53316 | -79.60020 | 36117 ft | 368 kts | 221° |
| 2026-05-03 22:41 | 33.49089 | -79.63497 | 36116 ft | 368 kts | 221° |
| 2026-05-03 22:42 | 33.44862 | -79.66977 | 36114 ft | 368 kts | 221° |
| 2026-05-03 22:42 | 33.40641 | -79.70447 | 36116 ft | 368 kts | 221° |
| 2026-05-03 22:43 | 33.36417 | -79.73914 | 36110 ft | 368 kts | 221° |
| 2026-05-03 22:43 | 33.32198 | -79.77376 | 36112 ft | 368 kts | 221° |
| 2026-05-03 22:44 | 33.27980 | -79.80831 | 36117 ft | 368 kts | 221° |
| 2026-05-03 22:44 | 33.23753 | -79.84280 | 36118 ft | 368 kts | 221° |
| 2026-05-03 22:45 | 33.19535 | -79.87731 | 36114 ft | 367 kts | 221° |
| 2026-05-03 22:45 | 33.15312 | -79.91176 | 36116 ft | 367 kts | 221° |
| 2026-05-03 22:46 | 33.11092 | -79.94614 | 36115 ft | 367 kts | 221° |
| 2026-05-03 22:46 | 33.06871 | -79.98045 | 36114 ft | 367 kts | 221° |
| 2026-05-03 22:47 | 33.02643 | -80.01479 | 36114 ft | 367 kts | 221° |
| 2026-05-03 22:47 | 32.98424 | -80.04903 | 36112 ft | 367 kts | 221° |
| 2026-05-03 22:48 | 32.94230 | -80.08306 | 36110 ft | 367 kts | 221° |
| 2026-05-03 22:48 | 32.90006 | -80.11732 | 36114 ft | 367 kts | 221° |
| 2026-05-03 22:49 | 32.85779 | -80.15147 | 36116 ft | 367 kts | 221° |
| 2026-05-03 22:49 | 32.81553 | -80.18554 | 36116 ft | 367 kts | 221° |
| 2026-05-03 22:50 | 32.77333 | -80.21956 | 36115 ft | 366 kts | 221° |
| 2026-05-03 22:50 | 32.73115 | -80.25357 | 36124 ft | 366 kts | 221° |
| 2026-05-03 22:51 | 32.68902 | -80.28755 | 36120 ft | 366 kts | 221° |
| 2026-05-03 22:51 | 32.64681 | -80.32153 | 36124 ft | 367 kts | 221° |
| 2026-05-03 22:52 | 32.60455 | -80.35545 | 36116 ft | 367 kts | 221° |
| 2026-05-03 22:52 | 32.56187 | -80.38877 | 36126 ft | 369 kts | 218° |
| 2026-05-03 22:53 | 32.51718 | -80.41916 | 36115 ft | 371 kts | 217° |
| 2026-05-03 22:53 | 32.47200 | -80.44871 | 36121 ft | 371 kts | 217° |
| 2026-05-03 22:54 | 32.42702 | -80.47867 | 36119 ft | 371 kts | 217° |
| 2026-05-03 22:54 | 32.38223 | -80.50883 | 36127 ft | 370 kts | 217° |
| 2026-05-03 22:55 | 32.33745 | -80.53909 | 36138 ft | 370 kts | 217° |
| 2026-05-03 22:55 | 32.29267 | -80.56919 | 36139 ft | 370 kts | 217° |
| 2026-05-03 22:56 | 32.24785 | -80.59921 | 36142 ft | 370 kts | 217° |
| 2026-05-03 22:56 | 32.20307 | -80.62920 | 36140 ft | 370 kts | 217° |
| 2026-05-03 22:57 | 32.15824 | -80.65921 | 36137 ft | 370 kts | 217° |
| 2026-05-03 22:57 | 32.11352 | -80.68917 | 36138 ft | 370 kts | 217° |
| 2026-05-03 22:58 | 32.06877 | -80.71915 | 36137 ft | 370 kts | 217° |
| 2026-05-03 22:58 | 32.02431 | -80.74887 | 36129 ft | 369 kts | 217° |
| 2026-05-03 22:59 | 31.97957 | -80.77872 | 36124 ft | 370 kts | 217° |
| 2026-05-03 22:59 | 31.93513 | -80.80815 | 35835 ft | 360 kts | 217° |
| 2026-05-03 22:59 | 31.91344 | -80.82251 | 35416 ft | 355 kts | 218° |
| 2026-05-03 23:00 | 31.89195 | -80.83679 | 34852 ft | 355 kts | 218° |
| 2026-05-03 23:00 | 31.87045 | -80.85113 | 34318 ft | 354 kts | 218° |
| 2026-05-03 23:00 | 31.84896 | -80.86547 | 34133 ft | 355 kts | 218° |
| 2026-05-03 23:01 | 31.80582 | -80.89426 | 34116 ft | 358 kts | 218° |
| 2026-05-03 23:01 | 31.76246 | -80.92301 | 34122 ft | 358 kts | 218° |
| 2026-05-03 23:02 | 31.71906 | -80.95173 | 34121 ft | 358 kts | 218° |
| 2026-05-03 23:02 | 31.67564 | -80.98041 | 34128 ft | 358 kts | 218° |
| 2026-05-03 23:03 | 31.63231 | -81.00904 | 34123 ft | 358 kts | 218° |
| 2026-05-03 23:03 | 31.58892 | -81.03765 | 34125 ft | 358 kts | 218° |
| 2026-05-03 23:04 | 31.54499 | -81.06547 | 34118 ft | 360 kts | 217° |
| 2026-05-03 23:04 | 31.50057 | -81.09245 | 34132 ft | 359 kts | 216° |
| 2026-05-03 23:05 | 31.45617 | -81.11940 | 34143 ft | 360 kts | 216° |
| 2026-05-03 23:05 | 31.41177 | -81.14652 | 34137 ft | 360 kts | 216° |
| 2026-05-03 23:06 | 31.36727 | -81.17361 | 34140 ft | 361 kts | 216° |
| 2026-05-03 23:06 | 31.32242 | -81.20033 | 34137 ft | 362 kts | 216° |
| 2026-05-03 23:07 | 31.27745 | -81.22688 | 34131 ft | 362 kts | 216° |
| 2026-05-03 23:07 | 31.23241 | -81.25347 | 34125 ft | 363 kts | 216° |
| 2026-05-03 23:08 | 31.18599 | -81.27759 | 34122 ft | 375 kts | 205° |
| 2026-05-03 23:08 | 31.15974 | -81.28258 | 34116 ft | 391 kts | 194° |
| 2026-05-03 23:08 | 31.13226 | -81.28269 | 34114 ft | 397 kts | 192° |
| 2026-05-03 23:09 | 31.07704 | -81.28233 | 34116 ft | 396 kts | 192° |
| 2026-05-03 23:09 | 31.02188 | -81.28219 | 34113 ft | 396 kts | 192° |
| 2026-05-03 23:10 | 30.96685 | -81.28207 | 34119 ft | 396 kts | 192° |
| 2026-05-03 23:10 | 30.91176 | -81.28197 | 34129 ft | 395 kts | 192° |
| 2026-05-03 23:11 | 30.85681 | -81.28185 | 34145 ft | 395 kts | 192° |
| 2026-05-03 23:11 | 30.80179 | -81.28167 | 34139 ft | 395 kts | 192° |
| 2026-05-03 23:12 | 30.74683 | -81.28150 | 34145 ft | 395 kts | 192° |
| 2026-05-03 23:12 | 30.69231 | -81.28134 | 34141 ft | 394 kts | 192° |
| 2026-05-03 23:13 | 30.63747 | -81.28124 | 34143 ft | 394 kts | 192° |
| 2026-05-03 23:13 | 30.58211 | -81.28053 | 34137 ft | 397 kts | 190° |
| 2026-05-03 23:14 | 30.52708 | -81.27665 | 34134 ft | 400 kts | 188° |
| 2026-05-03 23:14 | 30.47153 | -81.27155 | 34120 ft | 401 kts | 187° |
| 2026-05-03 23:15 | 30.41594 | -81.26690 | 34123 ft | 400 kts | 188° |
| 2026-05-03 23:15 | 30.36044 | -81.26274 | 34118 ft | 400 kts | 188° |
| 2026-05-03 23:16 | 30.30488 | -81.25863 | 34118 ft | 400 kts | 188° |
| 2026-05-03 23:16 | 30.24926 | -81.25454 | 34114 ft | 401 kts | 188° |
| 2026-05-03 23:17 | 30.19356 | -81.25046 | 34117 ft | 402 kts | 188° |
| 2026-05-03 23:17 | 30.13771 | -81.24633 | 34123 ft | 402 kts | 188° |
| 2026-05-03 23:18 | 30.08181 | -81.24212 | 34127 ft | 403 kts | 188° |
| 2026-05-03 23:18 | 30.02574 | -81.23786 | 34128 ft | 403 kts | 188° |
| 2026-05-03 23:19 | 29.96972 | -81.23369 | 34131 ft | 404 kts | 188° |
| 2026-05-03 23:19 | 29.92304 | -81.23026 | 34127 ft | 404 kts | 188° |
| 2026-05-03 23:20 | 29.86683 | -81.22615 | 34131 ft | 405 kts | 188° |
| 2026-05-03 23:20 | 29.81051 | -81.22196 | 33966 ft | 407 kts | 188° |
| 2026-05-03 23:20 | 29.78224 | -81.21983 | 33451 ft | 408 kts | 188° |
| 2026-05-03 23:21 | 29.75372 | -81.21773 | 32566 ft | 412 kts | 187° |
| 2026-05-03 23:21 | 29.72497 | -81.21562 | 31712 ft | 416 kts | 187° |
| 2026-05-03 23:21 | 29.69594 | -81.21346 | 30995 ft | 417 kts | 187° |
| 2026-05-03 23:21 | 29.66708 | -81.21107 | 30434 ft | 415 kts | 186° |
| 2026-05-03 23:22 | 29.60984 | -81.20595 | 29193 ft | 410 kts | 186° |
| 2026-05-03 23:22 | 29.58153 | -81.20339 | 28600 ft | 406 kts | 186° |
| 2026-05-03 23:22 | 29.55346 | -81.20090 | 28012 ft | 403 kts | 186° |
| 2026-05-03 23:23 | 29.52559 | -81.19844 | 27430 ft | 400 kts | 185° |
| 2026-05-03 23:23 | 29.49791 | -81.19600 | 26849 ft | 398 kts | 185° |
| 2026-05-03 23:23 | 29.47033 | -81.19359 | 26278 ft | 396 kts | 185° |
| 2026-05-03 23:23 | 29.44289 | -81.19126 | 25715 ft | 394 kts | 185° |
| 2026-05-03 23:24 | 29.41562 | -81.18902 | 25155 ft | 393 kts | 185° |
| 2026-05-03 23:24 | 29.38837 | -81.18678 | 24620 ft | 392 kts | 185° |
| 2026-05-03 23:24 | 29.36119 | -81.18450 | 24076 ft | 391 kts | 185° |
| 2026-05-03 23:24 | 29.33408 | -81.18219 | 23536 ft | 390 kts | 185° |
| 2026-05-03 23:25 | 29.30704 | -81.17987 | 22988 ft | 388 kts | 185° |
| 2026-05-03 23:25 | 29.28024 | -81.17758 | 22489 ft | 385 kts | 185° |
| 2026-05-03 23:25 | 29.25370 | -81.17527 | 21992 ft | 382 kts | 184° |
| 2026-05-03 23:25 | 29.22732 | -81.17290 | 21504 ft | 378 kts | 184° |
| 2026-05-03 23:26 | 29.20118 | -81.17036 | 21002 ft | 378 kts | 181° |
| 2026-05-03 23:26 | 29.17520 | -81.16376 | 20490 ft | 387 kts | 170° |
| 2026-05-03 23:26 | 29.14993 | -81.15294 | 19966 ft | 388 kts | 167° |
| 2026-05-03 23:26 | 29.12475 | -81.14194 | 19409 ft | 387 kts | 167° |
| 2026-05-03 23:27 | 29.09965 | -81.13100 | 18875 ft | 386 kts | 167° |
| 2026-05-03 23:27 | 29.07470 | -81.12016 | 18372 ft | 383 kts | 167° |
| 2026-05-03 23:27 | 29.05000 | -81.10970 | 17921 ft | 373 kts | 168° |
| 2026-05-03 23:27 | 29.02574 | -81.10014 | 17139 ft | 363 kts | 169° |
| 2026-05-03 23:28 | 29.00227 | -81.09130 | 16644 ft | 351 kts | 170° |
| 2026-05-03 23:28 | 28.97899 | -81.08312 | 16139 ft | 346 kts | 174° |
| 2026-05-03 23:28 | 28.95556 | -81.07910 | 15690 ft | 338 kts | 183° |
| 2026-05-03 23:28 | 28.93198 | -81.07671 | 15267 ft | 341 kts | 182° |
| 2026-05-03 23:29 | 28.90841 | -81.07401 | 14841 ft | 340 kts | 181° |
| 2026-05-03 23:29 | 28.88517 | -81.07366 | 14401 ft | 329 kts | 192° |
| 2026-05-03 23:29 | 28.86306 | -81.07853 | 13991 ft | 319 kts | 203° |
| 2026-05-03 23:29 | 28.84235 | -81.08698 | 13555 ft | 315 kts | 206° |
| 2026-05-03 23:30 | 28.82175 | -81.09560 | 13157 ft | 314 kts | 206° |
| 2026-05-03 23:30 | 28.80126 | -81.10417 | 12760 ft | 314 kts | 205° |
| 2026-05-03 23:30 | 28.78080 | -81.11270 | 12409 ft | 310 kts | 205° |
| 2026-05-03 23:30 | 28.76087 | -81.12094 | 12283 ft | 298 kts | 205° |
| 2026-05-03 23:31 | 28.74169 | -81.12884 | 12156 ft | 288 kts | 205° |
| 2026-05-03 23:31 | 28.72306 | -81.13650 | 11967 ft | 282 kts | 205° |
| 2026-05-03 23:31 | 28.70476 | -81.14392 | 11722 ft | 279 kts | 202° |
| 2026-05-03 23:31 | 28.68580 | -81.14920 | 11479 ft | 281 kts | 199° |
| 2026-05-03 23:32 | 28.66678 | -81.15422 | 11104 ft | 282 kts | 199° |
| 2026-05-03 23:32 | 28.64758 | -81.15924 | 10675 ft | 284 kts | 199° |
| 2026-05-03 23:32 | 28.62821 | -81.16426 | 10313 ft | 284 kts | 198° |
| 2026-05-03 23:32 | 28.60878 | -81.16930 | 9886 ft | 286 kts | 198° |
| 2026-05-03 23:33 | 28.58953 | -81.17427 | 9620 ft | 282 kts | 198° |
| 2026-05-03 23:33 | 28.57070 | -81.17909 | 9483 ft | 271 kts | 198° |
| 2026-05-03 23:33 | 28.55276 | -81.18368 | 9135 ft | 260 kts | 198° |
| 2026-05-03 23:33 | 28.53480 | -81.18617 | 8884 ft | 261 kts | 186° |
| 2026-05-03 23:34 | 28.51660 | -81.18641 | 8564 ft | 262 kts | 186° |
| 2026-05-03 23:34 | 28.49829 | -81.18661 | 8206 ft | 264 kts | 185° |
| 2026-05-03 23:34 | 28.48007 | -81.18677 | 7932 ft | 262 kts | 185° |
| 2026-05-03 23:34 | 28.46179 | -81.18689 | 7656 ft | 260 kts | 185° |
| 2026-05-03 23:35 | 28.44378 | -81.18700 | 7225 ft | 258 kts | 184° |
| 2026-05-03 23:35 | 28.42594 | -81.18713 | 6802 ft | 254 kts | 184° |
| 2026-05-03 23:35 | 28.40837 | -81.18726 | 6435 ft | 252 kts | 184° |
| 2026-05-03 23:35 | 28.39093 | -81.18739 | 6070 ft | 250 kts | 183° |
| 2026-05-03 23:36 | 28.37345 | -81.18753 | 5718 ft | 253 kts | 183° |
| 2026-05-03 23:36 | 28.35597 | -81.18766 | 5370 ft | 248 kts | 183° |
| 2026-05-03 23:36 | 28.33898 | -81.18778 | 5102 ft | 239 kts | 183° |
| 2026-05-03 23:36 | 28.32294 | -81.18785 | 4922 ft | 224 kts | 183° |
| 2026-05-03 23:37 | 28.30751 | -81.18795 | 4500 ft | 220 kts | 182° |
| 2026-05-03 23:37 | 28.29218 | -81.18783 | 4069 ft | 221 kts | 182° |
| 2026-05-03 23:37 | 28.27685 | -81.18753 | 3770 ft | 220 kts | 181° |
| 2026-05-03 23:37 | 28.26157 | -81.18753 | 3506 ft | 219 kts | 189° |
| 2026-05-03 23:38 | 28.24801 | -81.19410 | 3231 ft | 213 kts | 223° |
| 2026-05-03 23:38 | 28.24065 | -81.20801 | 3032 ft | 213 kts | 259° |
| 2026-05-03 23:38 | 28.23988 | -81.22491 | 3019 ft | 217 kts | 271° |
| 2026-05-03 23:38 | 28.24065 | -81.24206 | 3014 ft | 218 kts | 276° |
| 2026-05-03 23:39 | 28.24357 | -81.25892 | 3013 ft | 218 kts | 284° |
| 2026-05-03 23:39 | 28.25022 | -81.27416 | 3014 ft | 217 kts | 316° |
| 2026-05-03 23:39 | 28.26352 | -81.28084 | 3024 ft | 216 kts | 354° |
| 2026-05-03 23:39 | 28.27842 | -81.28118 | 2849 ft | 212 kts | 360° |
| 2026-05-03 23:40 | 28.29309 | -81.28111 | 2602 ft | 210 kts | 360° |
| 2026-05-03 23:40 | 28.30747 | -81.28119 | 2322 ft | 202 kts | 360° |
| 2026-05-03 23:40 | 28.32113 | -81.28132 | 2095 ft | 191 kts | 360° |
| 2026-05-03 23:40 | 28.33418 | -81.28146 | 1827 ft | 183 kts | 0° |
| 2026-05-03 23:41 | 28.34621 | -81.28158 | 1608 ft | 160 kts | 0° |
| 2026-05-03 23:41 | 28.35675 | -81.28170 | 1394 ft | 145 kts | 0° |
| 2026-05-03 23:41 | 28.36652 | -81.28179 | 1191 ft | 139 kts | 0° |
| 2026-05-03 23:41 | 28.37608 | -81.28189 | 982 ft | 137 kts | 2° |
| 2026-05-03 23:42 | 28.38550 | -81.28201 | 765 ft | 132 kts | 3° |
| 2026-05-03 23:42 | 28.39477 | -81.28211 | 597 ft | 135 kts | 4° |
| 2026-05-03 23:42 | 28.40429 | -81.28218 | 411 ft | 136 kts | 3° |
| 2026-05-03 23:42 | 28.41356 | -81.28230 | 231 ft | 133 kts | 5° |
| 2026-05-03 23:43 | 28.42278 | -81.28234 | 100 ft | 127 kts | 1° |
| 2026-05-03 23:43 | 28.42989 | -81.28243 | 97 ft | 77 kts | 360° |
| 2026-05-03 23:43 | 28.43322 | -81.28251 | 95 ft | 27 kts | 353° |